sensor_id;sensor_type;location;lat;lon;timestamp;P1;durP1;ratioP1;P2;durP2;ratioP2
38972;SDS011;25333;50.762;4.470;2022-09-30T00:01:36;5.88;;;3.90;;
38972;SDS011;25333;50.762;4.470;2022-09-30T00:04:04;5.25;;;3.85;;
38972;SDS011;25333;50.762;4.470;2022-09-30T00:06:30;5.40;;;3.92;;
38972;SDS011;25333;50.762;4.470;2022-09-30T00:08:59;6.75;;;4.03;;
38972;SDS011;25333;50.762;4.470;2022-09-30T00:11:27;4.60;;;3.42;;
38972;SDS011;25333;50.762;4.470;2022-09-30T00:13:55;5.30;;;4.00;;
38972;SDS011;25333;50.762;4.470;2022-09-30T00:16:22;4.43;;;3.40;;
38972;SDS011;25333;50.762;4.470;2022-09-30T00:18:48;5.20;;;3.85;;
38972;SDS011;25333;50.762;4.470;2022-09-30T00:21:15;6.00;;;3.75;;
38972;SDS011;25333;50.762;4.470;2022-09-30T00:23:41;7.53;;;3.88;;
38972;SDS011;25333;50.762;4.470;2022-09-30T00:26:10;7.05;;;3.83;;
38972;SDS011;25333;50.762;4.470;2022-09-30T00:28:41;5.27;;;3.83;;
38972;SDS011;25333;50.762;4.470;2022-09-30T00:31:10;5.85;;;3.85;;
38972;SDS011;25333;50.762;4.470;2022-09-30T00:33:38;6.10;;;4.07;;
38972;SDS011;25333;50.762;4.470;2022-09-30T00:36:04;6.03;;;3.75;;
38972;SDS011;25333;50.762;4.470;2022-09-30T00:38:29;3.92;;;2.97;;
38972;SDS011;25333;50.762;4.470;2022-09-30T00:40:55;7.33;;;3.90;;
38972;SDS011;25333;50.762;4.470;2022-09-30T00:48:57;6.03;;;3.90;;
38972;SDS011;25333;50.762;4.470;2022-09-30T00:51:32;5.20;;;3.40;;
38972;SDS011;25333;50.762;4.470;2022-09-30T00:54:02;5.43;;;3.65;;
38972;SDS011;25333;50.762;4.470;2022-09-30T00:56:38;5.25;;;3.80;;
38972;SDS011;25333;50.762;4.470;2022-09-30T00:59:13;5.22;;;4.25;;
38972;SDS011;25333;50.762;4.470;2022-09-30T01:01:43;5.10;;;3.53;;
38972;SDS011;25333;50.762;4.470;2022-09-30T01:04:09;6.15;;;4.05;;
38972;SDS011;25333;50.762;4.470;2022-09-30T01:06:38;6.50;;;4.60;;
38972;SDS011;25333;50.762;4.470;2022-09-30T01:09:05;7.57;;;4.10;;
38972;SDS011;25333;50.762;4.470;2022-09-30T01:11:31;5.78;;;3.90;;
38972;SDS011;25333;50.762;4.470;2022-09-30T01:13:58;5.22;;;3.90;;
38972;SDS011;25333;50.762;4.470;2022-09-30T01:19:18;7.32;;;3.90;;
38972;SDS011;25333;50.762;4.470;2022-09-30T01:22:02;5.05;;;4.25;;
38972;SDS011;25333;50.762;4.470;2022-09-30T01:24:38;4.32;;;3.38;;
38972;SDS011;25333;50.762;4.470;2022-09-30T01:32:44;6.28;;;4.13;;
38972;SDS011;25333;50.762;4.470;2022-09-30T01:35:29;6.03;;;3.53;;
38972;SDS011;25333;50.762;4.470;2022-09-30T01:38:26;5.63;;;4.20;;
38972;SDS011;25333;50.762;4.470;2022-09-30T01:41:15;4.10;;;3.58;;
38972;SDS011;25333;50.762;4.470;2022-09-30T01:46:38;6.32;;;3.80;;
38972;SDS011;25333;50.762;4.470;2022-09-30T01:49:11;7.20;;;4.63;;
38972;SDS011;25333;50.762;4.470;2022-09-30T01:59:44;6.25;;;4.18;;
38972;SDS011;25333;50.762;4.470;2022-09-30T02:02:21;5.00;;;4.10;;
38972;SDS011;25333;50.762;4.470;2022-09-30T02:05:35;5.72;;;3.70;;
38972;SDS011;25333;50.762;4.470;2022-09-30T02:07:54;4.90;;;3.67;;
38972;SDS011;25333;50.762;4.470;2022-09-30T02:10:51;6.72;;;4.05;;
38972;SDS011;25333;50.762;4.470;2022-09-30T02:13:30;5.45;;;3.70;;
38972;SDS011;25333;50.762;4.470;2022-09-30T02:16:02;5.40;;;3.83;;
38972;SDS011;25333;50.762;4.470;2022-09-30T02:18:41;5.07;;;3.40;;
38972;SDS011;25333;50.762;4.470;2022-09-30T02:21:21;5.47;;;3.53;;
38972;SDS011;25333;50.762;4.470;2022-09-30T02:23:52;4.25;;;2.80;;
38972;SDS011;25333;50.762;4.470;2022-09-30T02:26:24;6.50;;;3.60;;
38972;SDS011;25333;50.762;4.470;2022-09-30T02:28:58;5.43;;;3.63;;
38972;SDS011;25333;50.762;4.470;2022-09-30T02:31:31;5.10;;;3.65;;
38972;SDS011;25333;50.762;4.470;2022-09-30T02:34:08;6.10;;;3.33;;
38972;SDS011;25333;50.762;4.470;2022-09-30T02:36:56;5.30;;;4.10;;
38972;SDS011;25333;50.762;4.470;2022-09-30T02:42:19;5.80;;;3.78;;
38972;SDS011;25333;50.762;4.470;2022-09-30T02:44:50;5.55;;;3.80;;
38972;SDS011;25333;50.762;4.470;2022-09-30T02:47:25;7.33;;;3.87;;
38972;SDS011;25333;50.762;4.470;2022-09-30T02:58:30;4.93;;;3.75;;
38972;SDS011;25333;50.762;4.470;2022-09-30T03:00:57;8.07;;;3.72;;
38972;SDS011;25333;50.762;4.470;2022-09-30T03:03:25;6.33;;;4.33;;
38972;SDS011;25333;50.762;4.470;2022-09-30T03:05:53;5.97;;;4.82;;
38972;SDS011;25333;50.762;4.470;2022-09-30T03:08:19;5.50;;;3.95;;
38972;SDS011;25333;50.762;4.470;2022-09-30T03:10:45;6.50;;;4.23;;
38972;SDS011;25333;50.762;4.470;2022-09-30T03:18:47;6.72;;;4.47;;
38972;SDS011;25333;50.762;4.470;2022-09-30T03:30:03;5.27;;;3.97;;
38972;SDS011;25333;50.762;4.470;2022-09-30T03:32:45;6.27;;;4.40;;
38972;SDS011;25333;50.762;4.470;2022-09-30T03:40:58;6.97;;;5.20;;
38972;SDS011;25333;50.762;4.470;2022-09-30T03:43:37;9.07;;;4.45;;
38972;SDS011;25333;50.762;4.470;2022-09-30T03:48:47;7.40;;;4.72;;
38972;SDS011;25333;50.762;4.470;2022-09-30T03:51:16;6.65;;;4.57;;
38972;SDS011;25333;50.762;4.470;2022-09-30T03:53:42;6.55;;;4.30;;
38972;SDS011;25333;50.762;4.470;2022-09-30T03:56:10;5.50;;;4.23;;
38972;SDS011;25333;50.762;4.470;2022-09-30T03:58:38;9.23;;;5.13;;
38972;SDS011;25333;50.762;4.470;2022-09-30T04:01:06;8.17;;;4.67;;
38972;SDS011;25333;50.762;4.470;2022-09-30T04:03:33;6.30;;;5.25;;
38972;SDS011;25333;50.762;4.470;2022-09-30T04:05:59;5.65;;;4.50;;
38972;SDS011;25333;50.762;4.470;2022-09-30T04:08:25;8.43;;;5.40;;
38972;SDS011;25333;50.762;4.470;2022-09-30T04:10:51;7.00;;;5.25;;
38972;SDS011;25333;50.762;4.470;2022-09-30T04:13:17;7.73;;;5.07;;
38972;SDS011;25333;50.762;4.470;2022-09-30T04:15:42;8.82;;;5.03;;
38972;SDS011;25333;50.762;4.470;2022-09-30T04:18:08;6.63;;;4.93;;
38972;SDS011;25333;50.762;4.470;2022-09-30T04:20:34;7.90;;;4.93;;
38972;SDS011;25333;50.762;4.470;2022-09-30T04:23:00;6.55;;;4.70;;
38972;SDS011;25333;50.762;4.470;2022-09-30T04:25:26;7.13;;;4.72;;
38972;SDS011;25333;50.762;4.470;2022-09-30T04:27:52;7.72;;;5.47;;
38972;SDS011;25333;50.762;4.470;2022-09-30T04:30:18;7.25;;;5.40;;
38972;SDS011;25333;50.762;4.470;2022-09-30T04:32:44;7.45;;;5.05;;
38972;SDS011;25333;50.762;4.470;2022-09-30T04:35:13;6.37;;;4.67;;
38972;SDS011;25333;50.762;4.470;2022-09-30T04:37:42;8.23;;;4.80;;
38972;SDS011;25333;50.762;4.470;2022-09-30T04:40:09;5.75;;;4.22;;
38972;SDS011;25333;50.762;4.470;2022-09-30T04:42:36;6.20;;;4.65;;
38972;SDS011;25333;50.762;4.470;2022-09-30T04:45:03;7.03;;;4.93;;
38972;SDS011;25333;50.762;4.470;2022-09-30T04:47:29;7.80;;;4.78;;
38972;SDS011;25333;50.762;4.470;2022-09-30T04:49:55;5.45;;;4.50;;
38972;SDS011;25333;50.762;4.470;2022-09-30T04:52:21;9.85;;;5.60;;
38972;SDS011;25333;50.762;4.470;2022-09-30T04:54:47;8.30;;;5.13;;
38972;SDS011;25333;50.762;4.470;2022-09-30T04:57:12;6.43;;;4.97;;
38972;SDS011;25333;50.762;4.470;2022-09-30T04:59:38;6.53;;;4.27;;
38972;SDS011;25333;50.762;4.470;2022-09-30T05:02:04;6.90;;;4.15;;
38972;SDS011;25333;50.762;4.470;2022-09-30T05:04:30;6.38;;;5.10;;
38972;SDS011;25333;50.762;4.470;2022-09-30T05:06:57;5.85;;;5.20;;
38972;SDS011;25333;50.762;4.470;2022-09-30T05:09:24;6.72;;;5.13;;
38972;SDS011;25333;50.762;4.470;2022-09-30T05:11:49;8.57;;;5.00;;
38972;SDS011;25333;50.762;4.470;2022-09-30T05:14:16;6.55;;;4.57;;
38972;SDS011;25333;50.762;4.470;2022-09-30T05:16:41;6.87;;;4.83;;
38972;SDS011;25333;50.762;4.470;2022-09-30T05:19:07;6.97;;;4.77;;
38972;SDS011;25333;50.762;4.470;2022-09-30T05:21:33;7.53;;;4.53;;
38972;SDS011;25333;50.762;4.470;2022-09-30T05:23:59;9.40;;;5.50;;
38972;SDS011;25333;50.762;4.470;2022-09-30T05:26:26;7.83;;;5.17;;
38972;SDS011;25333;50.762;4.470;2022-09-30T05:28:52;7.43;;;5.38;;
38972;SDS011;25333;50.762;4.470;2022-09-30T05:31:18;7.25;;;4.80;;
38972;SDS011;25333;50.762;4.470;2022-09-30T05:33:47;8.65;;;5.93;;
38972;SDS011;25333;50.762;4.470;2022-09-30T05:36:13;7.95;;;5.43;;
38972;SDS011;25333;50.762;4.470;2022-09-30T05:38:40;9.98;;;6.30;;
38972;SDS011;25333;50.762;4.470;2022-09-30T05:41:06;9.90;;;5.88;;
38972;SDS011;25333;50.762;4.470;2022-09-30T05:43:35;6.40;;;5.35;;
38972;SDS011;25333;50.762;4.470;2022-09-30T05:46:02;7.30;;;5.78;;
38972;SDS011;25333;50.762;4.470;2022-09-30T05:48:27;8.70;;;6.35;;
38972;SDS011;25333;50.762;4.470;2022-09-30T05:50:56;10.13;;;6.53;;
38972;SDS011;25333;50.762;4.470;2022-09-30T05:53:25;9.18;;;6.07;;
38972;SDS011;25333;50.762;4.470;2022-09-30T05:55:51;9.15;;;5.82;;
38972;SDS011;25333;50.762;4.470;2022-09-30T05:58:17;9.52;;;6.03;;
38972;SDS011;25333;50.762;4.470;2022-09-30T06:00:44;9.20;;;6.20;;
38972;SDS011;25333;50.762;4.470;2022-09-30T06:03:11;9.32;;;6.75;;
38972;SDS011;25333;50.762;4.470;2022-09-30T06:05:36;12.95;;;5.68;;
38972;SDS011;25333;50.762;4.470;2022-09-30T06:08:02;8.35;;;5.97;;
38972;SDS011;25333;50.762;4.470;2022-09-30T06:10:28;8.00;;;5.85;;
38972;SDS011;25333;50.762;4.470;2022-09-30T06:12:54;8.70;;;6.15;;
38972;SDS011;25333;50.762;4.470;2022-09-30T06:15:21;8.77;;;6.75;;
38972;SDS011;25333;50.762;4.470;2022-09-30T06:17:51;7.93;;;5.25;;
38972;SDS011;25333;50.762;4.470;2022-09-30T06:20:17;8.10;;;6.03;;
38972;SDS011;25333;50.762;4.470;2022-09-30T06:22:43;7.65;;;6.25;;
38972;SDS011;25333;50.762;4.470;2022-09-30T06:25:09;8.77;;;5.83;;
38972;SDS011;25333;50.762;4.470;2022-09-30T06:27:35;10.10;;;5.80;;
38972;SDS011;25333;50.762;4.470;2022-09-30T06:30:04;9.15;;;6.05;;
38972;SDS011;25333;50.762;4.470;2022-09-30T06:32:30;8.25;;;6.20;;
38972;SDS011;25333;50.762;4.470;2022-09-30T06:34:56;9.40;;;6.82;;
38972;SDS011;25333;50.762;4.470;2022-09-30T06:37:22;11.18;;;7.18;;
38972;SDS011;25333;50.762;4.470;2022-09-30T06:39:48;7.93;;;5.95;;
38972;SDS011;25333;50.762;4.470;2022-09-30T06:42:15;10.68;;;7.28;;
38972;SDS011;25333;50.762;4.470;2022-09-30T06:44:41;10.63;;;7.65;;
38972;SDS011;25333;50.762;4.470;2022-09-30T06:47:07;9.82;;;7.05;;
38972;SDS011;25333;50.762;4.470;2022-09-30T06:49:33;9.25;;;7.18;;
38972;SDS011;25333;50.762;4.470;2022-09-30T06:51:58;10.27;;;7.07;;
38972;SDS011;25333;50.762;4.470;2022-09-30T06:54:25;8.70;;;7.47;;
38972;SDS011;25333;50.762;4.470;2022-09-30T06:56:52;10.65;;;6.82;;
38972;SDS011;25333;50.762;4.470;2022-09-30T06:59:19;9.68;;;7.47;;
38972;SDS011;25333;50.762;4.470;2022-09-30T07:01:45;12.25;;;8.75;;
38972;SDS011;25333;50.762;4.470;2022-09-30T07:04:10;11.17;;;7.80;;
38972;SDS011;25333;50.762;4.470;2022-09-30T07:06:36;9.73;;;8.25;;
38972;SDS011;25333;50.762;4.470;2022-09-30T07:09:03;11.63;;;8.85;;
38972;SDS011;25333;50.762;4.470;2022-09-30T07:11:29;11.55;;;7.68;;
38972;SDS011;25333;50.762;4.470;2022-09-30T07:13:55;10.65;;;8.38;;
38972;SDS011;25333;50.762;4.470;2022-09-30T07:16:21;10.77;;;8.20;;
38972;SDS011;25333;50.762;4.470;2022-09-30T07:18:50;18.92;;;8.52;;
38972;SDS011;25333;50.762;4.470;2022-09-30T07:21:15;11.80;;;9.50;;
38972;SDS011;25333;50.762;4.470;2022-09-30T07:23:42;11.32;;;9.00;;
38972;SDS011;25333;50.762;4.470;2022-09-30T07:26:18;12.23;;;9.93;;
38972;SDS011;25333;50.762;4.470;2022-09-30T07:28:46;12.75;;;10.73;;
38972;SDS011;25333;50.762;4.470;2022-09-30T07:33:38;12.13;;;10.68;;
38972;SDS011;25333;50.762;4.470;2022-09-30T07:36:05;14.80;;;12.15;;
38972;SDS011;25333;50.762;4.470;2022-09-30T07:38:32;13.88;;;10.85;;
38972;SDS011;25333;50.762;4.470;2022-09-30T07:41:05;14.97;;;12.20;;
38972;SDS011;25333;50.762;4.470;2022-09-30T07:43:33;17.45;;;12.48;;
38972;SDS011;25333;50.762;4.470;2022-09-30T07:46:10;12.70;;;11.40;;
38972;SDS011;25333;50.762;4.470;2022-09-30T07:48:39;16.23;;;13.02;;
38972;SDS011;25333;50.762;4.470;2022-09-30T07:51:13;20.10;;;15.82;;
38972;SDS011;25333;50.762;4.470;2022-09-30T07:53:45;22.88;;;16.50;;
38972;SDS011;25333;50.762;4.470;2022-09-30T07:56:12;23.38;;;19.00;;
38972;SDS011;25333;50.762;4.470;2022-09-30T07:58:39;23.05;;;18.48;;
38972;SDS011;25333;50.762;4.470;2022-09-30T08:01:05;22.80;;;19.50;;
38972;SDS011;25333;50.762;4.470;2022-09-30T08:03:32;25.53;;;18.50;;
38972;SDS011;25333;50.762;4.470;2022-09-30T08:06:03;24.87;;;19.77;;
38972;SDS011;25333;50.762;4.470;2022-09-30T08:08:32;27.50;;;20.77;;
38972;SDS011;25333;50.762;4.470;2022-09-30T08:10:59;26.45;;;19.92;;
38972;SDS011;25333;50.762;4.470;2022-09-30T08:13:25;24.98;;;17.85;;
38972;SDS011;25333;50.762;4.470;2022-09-30T08:15:51;20.47;;;16.97;;
38972;SDS011;25333;50.762;4.470;2022-09-30T08:18:17;22.75;;;17.83;;
38972;SDS011;25333;50.762;4.470;2022-09-30T08:20:42;19.20;;;16.90;;
38972;SDS011;25333;50.762;4.470;2022-09-30T08:23:08;21.75;;;15.77;;
38972;SDS011;25333;50.762;4.470;2022-09-30T08:25:33;23.43;;;16.37;;
38972;SDS011;25333;50.762;4.470;2022-09-30T08:27:59;22.08;;;17.20;;
38972;SDS011;25333;50.762;4.470;2022-09-30T08:30:25;17.87;;;14.97;;
38972;SDS011;25333;50.762;4.470;2022-09-30T08:32:51;22.48;;;15.98;;
38972;SDS011;25333;50.762;4.470;2022-09-30T08:35:16;22.07;;;16.30;;
38972;SDS011;25333;50.762;4.470;2022-09-30T08:37:42;20.13;;;15.55;;
38972;SDS011;25333;50.762;4.470;2022-09-30T08:40:13;18.70;;;15.43;;
38972;SDS011;25333;50.762;4.470;2022-09-30T08:42:49;16.52;;;13.73;;
38972;SDS011;25333;50.762;4.470;2022-09-30T08:45:24;17.25;;;13.93;;
38972;SDS011;25333;50.762;4.470;2022-09-30T08:51:05;15.02;;;11.20;;
38972;SDS011;25333;50.762;4.470;2022-09-30T08:53:35;14.15;;;10.98;;
38972;SDS011;25333;50.762;4.470;2022-09-30T08:56:04;14.18;;;10.95;;
38972;SDS011;25333;50.762;4.470;2022-09-30T08:58:31;11.88;;;10.20;;
38972;SDS011;25333;50.762;4.470;2022-09-30T09:01:12;16.35;;;10.30;;
38972;SDS011;25333;50.762;4.470;2022-09-30T09:03:42;16.42;;;11.82;;
38972;SDS011;25333;50.762;4.470;2022-09-30T09:06:19;12.63;;;9.95;;
38972;SDS011;25333;50.762;4.470;2022-09-30T09:09:07;11.52;;;8.35;;
38972;SDS011;25333;50.762;4.470;2022-09-30T09:14:35;9.57;;;7.18;;
38972;SDS011;25333;50.762;4.470;2022-09-30T09:20:12;8.90;;;6.20;;
38972;SDS011;25333;50.762;4.470;2022-09-30T09:22:40;9.63;;;6.38;;
38972;SDS011;25333;50.762;4.470;2022-09-30T09:25:11;6.83;;;5.37;;
38972;SDS011;25333;50.762;4.470;2022-09-30T09:30:37;6.97;;;5.25;;
38972;SDS011;25333;50.762;4.470;2022-09-30T09:33:13;6.35;;;4.80;;
38972;SDS011;25333;50.762;4.470;2022-09-30T09:35:59;7.05;;;4.68;;
38972;SDS011;25333;50.762;4.470;2022-09-30T09:44:29;7.75;;;5.53;;
38972;SDS011;25333;50.762;4.470;2022-09-30T09:47:12;7.07;;;3.88;;
38972;SDS011;25333;50.762;4.470;2022-09-30T09:49:40;5.22;;;4.15;;
38972;SDS011;25333;50.762;4.470;2022-09-30T09:54:40;8.35;;;3.40;;
38972;SDS011;25333;50.762;4.470;2022-09-30T09:57:17;5.30;;;3.95;;
38972;SDS011;25333;50.762;4.470;2022-09-30T09:59:59;4.85;;;2.92;;
38972;SDS011;25333;50.762;4.470;2022-09-30T10:05:33;7.85;;;3.30;;
38972;SDS011;25333;50.762;4.470;2022-09-30T10:08:18;5.40;;;2.33;;
38972;SDS011;25333;50.762;4.470;2022-09-30T10:10:53;5.55;;;3.08;;
38972;SDS011;25333;50.762;4.470;2022-09-30T10:13:22;3.88;;;2.33;;
38972;SDS011;25333;50.762;4.470;2022-09-30T10:15:56;4.75;;;3.28;;
38972;SDS011;25333;50.762;4.470;2022-09-30T10:18:27;5.57;;;3.28;;
38972;SDS011;25333;50.762;4.470;2022-09-30T10:20:54;5.88;;;4.53;;
38972;SDS011;25333;50.762;4.470;2022-09-30T10:23:26;6.47;;;3.30;;
38972;SDS011;25333;50.762;4.470;2022-09-30T10:26:01;5.05;;;2.15;;
38972;SDS011;25333;50.762;4.470;2022-09-30T10:28:43;5.15;;;2.38;;
38972;SDS011;25333;50.762;4.470;2022-09-30T10:33:47;6.18;;;2.70;;
38972;SDS011;25333;50.762;4.470;2022-09-30T10:36:21;7.77;;;3.60;;
38972;SDS011;25333;50.762;4.470;2022-09-30T10:38:58;6.35;;;3.45;;
38972;SDS011;25333;50.762;4.470;2022-09-30T10:41:32;4.60;;;3.70;;
38972;SDS011;25333;50.762;4.470;2022-09-30T10:44:04;8.60;;;3.92;;
38972;SDS011;25333;50.762;4.470;2022-09-30T10:46:37;6.07;;;3.08;;
38972;SDS011;25333;50.762;4.470;2022-09-30T10:49:08;7.18;;;4.20;;
38972;SDS011;25333;50.762;4.470;2022-09-30T10:51:36;5.82;;;3.40;;
38972;SDS011;25333;50.762;4.470;2022-09-30T10:54:03;8.70;;;4.43;;
38972;SDS011;25333;50.762;4.470;2022-09-30T10:56:42;6.95;;;4.28;;
38972;SDS011;25333;50.762;4.470;2022-09-30T10:59:17;9.18;;;5.97;;
38972;SDS011;25333;50.762;4.470;2022-09-30T11:01:51;8.57;;;5.63;;
38972;SDS011;25333;50.762;4.470;2022-09-30T11:04:37;10.77;;;6.07;;
38972;SDS011;25333;50.762;4.470;2022-09-30T11:07:12;9.73;;;6.60;;
38972;SDS011;25333;50.762;4.470;2022-09-30T11:09:50;13.00;;;7.28;;
38972;SDS011;25333;50.762;4.470;2022-09-30T11:12:27;11.93;;;6.22;;
38972;SDS011;25333;50.762;4.470;2022-09-30T11:20:20;9.63;;;5.13;;
38972;SDS011;25333;50.762;4.470;2022-09-30T11:23:04;8.10;;;5.00;;
38972;SDS011;25333;50.762;4.470;2022-09-30T11:28:50;9.90;;;5.15;;
38972;SDS011;25333;50.762;4.470;2022-09-30T11:40:36;9.27;;;5.25;;
38972;SDS011;25333;50.762;4.470;2022-09-30T11:46:49;7.15;;;4.20;;
38972;SDS011;25333;50.762;4.470;2022-09-30T11:57:34;5.15;;;3.35;;
38972;SDS011;25333;50.762;4.470;2022-09-30T12:02:34;6.05;;;2.70;;
38972;SDS011;25333;50.762;4.470;2022-09-30T12:05:26;5.40;;;2.90;;
38972;SDS011;25333;50.762;4.470;2022-09-30T12:08:02;5.32;;;2.08;;
38972;SDS011;25333;50.762;4.470;2022-09-30T12:10:45;3.70;;;2.33;;
38972;SDS011;25333;50.762;4.470;2022-09-30T12:13:22;3.95;;;2.63;;
38972;SDS011;25333;50.762;4.470;2022-09-30T12:15:51;4.07;;;2.28;;
38972;SDS011;25333;50.762;4.470;2022-09-30T12:18:24;5.85;;;2.40;;
38972;SDS011;25333;50.762;4.470;2022-09-30T12:20:55;3.78;;;2.40;;
38972;SDS011;25333;50.762;4.470;2022-09-30T12:23:31;5.10;;;2.78;;
38972;SDS011;25333;50.762;4.470;2022-09-30T12:26:04;5.25;;;2.85;;
38972;SDS011;25333;50.762;4.470;2022-09-30T12:28:48;5.13;;;2.63;;
38972;SDS011;25333;50.762;4.470;2022-09-30T12:34:41;5.50;;;2.60;;
38972;SDS011;25333;50.762;4.470;2022-09-30T12:37:22;4.97;;;2.97;;
38972;SDS011;25333;50.762;4.470;2022-09-30T12:45:55;3.40;;;1.65;;
38972;SDS011;25333;50.762;4.470;2022-09-30T12:48:33;3.92;;;1.45;;
38972;SDS011;25333;50.762;4.470;2022-09-30T12:51:03;3.23;;;1.77;;
38972;SDS011;25333;50.762;4.470;2022-09-30T12:53:31;2.88;;;1.00;;
38972;SDS011;25333;50.762;4.470;2022-09-30T12:56:05;2.35;;;1.30;;
38972;SDS011;25333;50.762;4.470;2022-09-30T12:58:37;2.08;;;1.25;;
38972;SDS011;25333;50.762;4.470;2022-09-30T13:01:13;1.63;;;0.93;;
38972;SDS011;25333;50.762;4.470;2022-09-30T13:03:43;4.38;;;1.90;;
38972;SDS011;25333;50.762;4.470;2022-09-30T13:06:13;1.98;;;1.17;;
38972;SDS011;25333;50.762;4.470;2022-09-30T13:08:41;3.35;;;1.38;;
38972;SDS011;25333;50.762;4.470;2022-09-30T13:11:45;2.50;;;1.57;;
38972;SDS011;25333;50.762;4.470;2022-09-30T13:14:22;3.88;;;1.42;;
38972;SDS011;25333;50.762;4.470;2022-09-30T13:17:02;3.10;;;1.80;;
38972;SDS011;25333;50.762;4.470;2022-09-30T13:19:40;3.30;;;1.42;;
38972;SDS011;25333;50.762;4.470;2022-09-30T13:27:37;2.40;;;1.20;;
38972;SDS011;25333;50.762;4.470;2022-09-30T13:32:40;1.85;;;1.13;;
38972;SDS011;25333;50.762;4.470;2022-09-30T13:40:46;3.55;;;1.70;;
38972;SDS011;25333;50.762;4.470;2022-09-30T13:48:41;1.38;;;0.93;;
38972;SDS011;25333;50.762;4.470;2022-09-30T13:51:16;5.72;;;1.08;;
38972;SDS011;25333;50.762;4.470;2022-09-30T13:53:46;1.85;;;0.70;;
38972;SDS011;25333;50.762;4.470;2022-09-30T13:56:19;1.52;;;0.77;;
38972;SDS011;25333;50.762;4.470;2022-09-30T14:07:15;2.47;;;0.85;;
38972;SDS011;25333;50.762;4.470;2022-09-30T14:09:59;1.35;;;0.38;;
38972;SDS011;25333;50.762;4.470;2022-09-30T14:18:15;3.05;;;1.20;;
38972;SDS011;25333;50.762;4.470;2022-09-30T14:24:07;1.83;;;0.73;;
38972;SDS011;25333;50.762;4.470;2022-09-30T14:35:14;3.22;;;1.55;;
38972;SDS011;25333;50.762;4.470;2022-09-30T14:37:52;2.33;;;1.45;;
38972;SDS011;25333;50.762;4.470;2022-09-30T14:40:29;2.10;;;0.85;;
38972;SDS011;25333;50.762;4.470;2022-09-30T14:42:57;1.95;;;1.00;;
38972;SDS011;25333;50.762;4.470;2022-09-30T14:45:27;1.77;;;0.60;;
38972;SDS011;25333;50.762;4.470;2022-09-30T14:47:57;1.73;;;0.57;;
38972;SDS011;25333;50.762;4.470;2022-09-30T14:50:49;2.38;;;0.77;;
38972;SDS011;25333;50.762;4.470;2022-09-30T14:53:34;1.70;;;0.85;;
38972;SDS011;25333;50.762;4.470;2022-09-30T14:56:02;2.97;;;1.13;;
38972;SDS011;25333;50.762;4.470;2022-09-30T14:58:39;1.65;;;1.02;;
38972;SDS011;25333;50.762;4.470;2022-09-30T15:03:39;2.22;;;1.20;;
38972;SDS011;25333;50.762;4.470;2022-09-30T15:06:16;3.53;;;1.40;;
38972;SDS011;25333;50.762;4.470;2022-09-30T15:08:50;3.05;;;1.35;;
38972;SDS011;25333;50.762;4.470;2022-09-30T15:11:23;2.20;;;1.27;;
38972;SDS011;25333;50.762;4.470;2022-09-30T15:14:02;2.97;;;1.58;;
38972;SDS011;25333;50.762;4.470;2022-09-30T15:16:43;2.78;;;1.40;;
38972;SDS011;25333;50.762;4.470;2022-09-30T15:19:20;5.20;;;1.50;;
38972;SDS011;25333;50.762;4.470;2022-09-30T15:21:52;3.08;;;1.42;;
38972;SDS011;25333;50.762;4.470;2022-09-30T15:24:20;2.22;;;1.10;;
38972;SDS011;25333;50.762;4.470;2022-09-30T15:26:48;3.95;;;1.55;;
38972;SDS011;25333;50.762;4.470;2022-09-30T15:29:15;4.95;;;1.38;;
38972;SDS011;25333;50.762;4.470;2022-09-30T15:31:45;4.40;;;2.08;;
38972;SDS011;25333;50.762;4.470;2022-09-30T15:34:17;3.78;;;1.30;;
38972;SDS011;25333;50.762;4.470;2022-09-30T15:36:45;2.65;;;1.42;;
38972;SDS011;25333;50.762;4.470;2022-09-30T15:39:19;2.70;;;0.98;;
38972;SDS011;25333;50.762;4.470;2022-09-30T15:42:11;3.13;;;1.58;;
38972;SDS011;25333;50.762;4.470;2022-09-30T15:44:38;4.10;;;1.58;;
38972;SDS011;25333;50.762;4.470;2022-09-30T15:47:07;1.48;;;1.13;;
38972;SDS011;25333;50.762;4.470;2022-09-30T15:52:44;2.40;;;1.67;;
38972;SDS011;25333;50.762;4.470;2022-09-30T15:54:53;3.95;;;1.40;;
38972;SDS011;25333;50.762;4.470;2022-09-30T15:57:41;2.45;;;1.20;;
38972;SDS011;25333;50.762;4.470;2022-09-30T16:03:31;4.60;;;1.80;;
38972;SDS011;25333;50.762;4.470;2022-09-30T16:05:53;2.88;;;1.50;;
38972;SDS011;25333;50.762;4.470;2022-09-30T16:08:45;2.65;;;1.50;;
38972;SDS011;25333;50.762;4.470;2022-09-30T16:11:21;2.70;;;1.45;;
38972;SDS011;25333;50.762;4.470;2022-09-30T16:13:50;2.72;;;1.08;;
38972;SDS011;25333;50.762;4.470;2022-09-30T16:16:18;2.67;;;1.20;;
38972;SDS011;25333;50.762;4.470;2022-09-30T16:18:46;2.72;;;0.80;;
38972;SDS011;25333;50.762;4.470;2022-09-30T16:26:55;1.80;;;0.77;;
38972;SDS011;25333;50.762;4.470;2022-09-30T16:29:39;2.60;;;0.93;;
38972;SDS011;25333;50.762;4.470;2022-09-30T16:32:05;4.20;;;0.93;;
38972;SDS011;25333;50.762;4.470;2022-09-30T16:34:33;3.08;;;1.08;;
38972;SDS011;25333;50.762;4.470;2022-09-30T16:37:14;2.30;;;0.77;;
38972;SDS011;25333;50.762;4.470;2022-09-30T16:39:43;1.83;;;0.82;;
38972;SDS011;25333;50.762;4.470;2022-09-30T16:42:12;1.17;;;0.63;;
38972;SDS011;25333;50.762;4.470;2022-09-30T16:44:39;2.80;;;0.73;;
38972;SDS011;25333;50.762;4.470;2022-09-30T16:47:06;2.50;;;1.10;;
38972;SDS011;25333;50.762;4.470;2022-09-30T16:49:33;2.47;;;0.83;;
38972;SDS011;25333;50.762;4.470;2022-09-30T16:51:59;2.95;;;0.95;;
38972;SDS011;25333;50.762;4.470;2022-09-30T16:54:25;2.35;;;0.90;;
38972;SDS011;25333;50.762;4.470;2022-09-30T16:56:50;2.53;;;0.90;;
38972;SDS011;25333;50.762;4.470;2022-09-30T16:59:18;1.77;;;0.88;;
38972;SDS011;25333;50.762;4.470;2022-09-30T17:01:44;1.67;;;0.75;;
38972;SDS011;25333;50.762;4.470;2022-09-30T17:04:10;2.20;;;1.05;;
38972;SDS011;25333;50.762;4.470;2022-09-30T17:06:35;3.67;;;2.10;;
38972;SDS011;25333;50.762;4.470;2022-09-30T17:09:02;3.92;;;2.35;;
38972;SDS011;25333;50.762;4.470;2022-09-30T17:11:30;3.95;;;1.98;;
38972;SDS011;25333;50.762;4.470;2022-09-30T17:13:59;3.55;;;1.42;;
38972;SDS011;25333;50.762;4.470;2022-09-30T17:16:26;1.88;;;0.75;;
38972;SDS011;25333;50.762;4.470;2022-09-30T17:18:52;3.03;;;0.75;;
38972;SDS011;25333;50.762;4.470;2022-09-30T17:21:19;1.38;;;0.60;;
38972;SDS011;25333;50.762;4.470;2022-09-30T17:23:46;1.30;;;0.60;;
38972;SDS011;25333;50.762;4.470;2022-09-30T17:26:12;1.75;;;0.90;;
38972;SDS011;25333;50.762;4.470;2022-09-30T17:28:38;1.40;;;0.53;;
38972;SDS011;25333;50.762;4.470;2022-09-30T17:31:04;1.00;;;0.50;;
38972;SDS011;25333;50.762;4.470;2022-09-30T17:33:32;1.35;;;0.80;;
38972;SDS011;25333;50.762;4.470;2022-09-30T17:35:59;2.55;;;0.98;;
38972;SDS011;25333;50.762;4.470;2022-09-30T17:38:27;2.00;;;1.17;;
38972;SDS011;25333;50.762;4.470;2022-09-30T17:40:53;2.58;;;1.20;;
38972;SDS011;25333;50.762;4.470;2022-09-30T17:43:37;1.35;;;0.68;;
38972;SDS011;25333;50.762;4.470;2022-09-30T17:46:03;2.15;;;0.60;;
38972;SDS011;25333;50.762;4.470;2022-09-30T17:48:29;1.63;;;0.68;;
38972;SDS011;25333;50.762;4.470;2022-09-30T17:50:55;1.65;;;0.80;;
38972;SDS011;25333;50.762;4.470;2022-09-30T17:53:22;1.73;;;0.43;;
38972;SDS011;25333;50.762;4.470;2022-09-30T17:55:58;1.50;;;0.50;;
38972;SDS011;25333;50.762;4.470;2022-09-30T17:58:28;1.98;;;0.68;;
38972;SDS011;25333;50.762;4.470;2022-09-30T18:00:54;1.75;;;0.68;;
38972;SDS011;25333;50.762;4.470;2022-09-30T18:03:23;1.70;;;0.80;;
38972;SDS011;25333;50.762;4.470;2022-09-30T18:05:55;2.03;;;1.15;;
38972;SDS011;25333;50.762;4.470;2022-09-30T18:08:22;2.38;;;1.17;;
38972;SDS011;25333;50.762;4.470;2022-09-30T18:10:49;2.13;;;0.77;;
38972;SDS011;25333;50.762;4.470;2022-09-30T18:13:16;2.53;;;1.20;;